Aviation Digital Data Service (ADDS)

Output produced by METARs form (2230 UTC 25 September 2016)
found at http://aviationweather.gov/adds/metars/
 
KAGC 251720Z 2518/2618 09005KT P6SM SKC 
     FM261500 16007KT P6SM VCSH BKN100